Terminal Aerodrome Forecast
Issued by NWS Sterling, VA

Current Version | Previous Version | Graphics & Text | Print | Product List | Glossary On
Versions: 1 2 3 4 5 6 7 8 9 10 11 12
337
FTUS41 KLWX 271726
TAFMRB
TAF
KMRB 271726Z 2718/2818 11006KT P6SM SKC
     FM280800 00000KT 6SM BR SKC
     FM280900 00000KT 3SM BR SKC
     FM281300 VRB03KT P6SM SKC=

USA.gov is the U.S. government's official web portal to all federal, state and local government web resources and services.